sensor_id;sensor_type;location;lat;lon;timestamp;pressure;altitude;pressure_sealevel;temperature;humidity
20424;BME280;10371;49.042;8.002;2023-08-17T00:00:31;99986.69;;;19.28;100.00
20424;BME280;10371;49.042;8.002;2023-08-17T00:01:31;99990.00;;;19.30;100.00
20424;BME280;10371;49.042;8.002;2023-08-17T00:02:31;99983.38;;;19.34;100.00
20424;BME280;10371;49.042;8.002;2023-08-17T00:03:32;99988.66;;;19.34;100.00
20424;BME280;10371;49.042;8.002;2023-08-17T00:04:32;99974.44;;;19.35;100.00
20424;BME280;10371;49.042;8.002;2023-08-17T00:05:33;99980.38;;;19.37;100.00
20424;BME280;10371;49.042;8.002;2023-08-17T00:06:33;99985.81;;;19.35;100.00
20424;BME280;10371;49.042;8.002;2023-08-17T00:07:34;99982.53;;;19.33;100.00
20424;BME280;10371;49.042;8.002;2023-08-17T00:08:34;99990.63;;;19.32;100.00
20424;BME280;10371;49.042;8.002;2023-08-17T00:09:35;99983.72;;;19.31;100.00
20424;BME280;10371;49.042;8.002;2023-08-17T00:10:35;99987.34;;;19.30;100.00
20424;BME280;10371;49.042;8.002;2023-08-17T00:11:38;99985.06;;;19.27;100.00
20424;BME280;10371;49.042;8.002;2023-08-17T00:12:39;99986.69;;;19.28;100.00
20424;BME280;10371;49.042;8.002;2023-08-17T00:13:39;99986.88;;;19.26;100.00
20424;BME280;10371;49.042;8.002;2023-08-17T00:14:39;99989.69;;;19.25;100.00
20424;BME280;10371;49.042;8.002;2023-08-17T00:15:39;99989.69;;;19.25;100.00
20424;BME280;10371;49.042;8.002;2023-08-17T00:16:40;99979.69;;;19.20;100.00
20424;BME280;10371;49.042;8.002;2023-08-17T00:17:41;99985.13;;;19.18;100.00
20424;BME280;10371;49.042;8.002;2023-08-17T00:18:42;99983.50;;;19.17;100.00
20424;BME280;10371;49.042;8.002;2023-08-17T00:19:42;99980.19;;;19.15;100.00
20424;BME280;10371;49.042;8.002;2023-08-17T00:20:42;99976.75;;;19.15;100.00
20424;BME280;10371;49.042;8.002;2023-08-17T00:21:45;99975.09;;;19.14;100.00
20424;BME280;10371;49.042;8.002;2023-08-17T00:22:45;99975.72;;;19.16;100.00
20424;BME280;10371;49.042;8.002;2023-08-17T00:23:45;99974.75;;;19.17;100.00
20424;BME280;10371;49.042;8.002;2023-08-17T00:24:46;99980.03;;;19.17;100.00
20424;BME280;10371;49.042;8.002;2023-08-17T00:25:47;99976.22;;;19.19;100.00
20424;BME280;10371;49.042;8.002;2023-08-17T00:26:47;99971.56;;;19.22;100.00
20424;BME280;10371;49.042;8.002;2023-08-17T00:27:48;99974.03;;;19.23;100.00
20424;BME280;10371;49.042;8.002;2023-08-17T00:28:48;99973.03;;;19.24;100.00
20424;BME280;10371;49.042;8.002;2023-08-17T00:29:48;99982.78;;;19.24;100.00
20424;BME280;10371;49.042;8.002;2023-08-17T00:30:48;99972.06;;;19.25;100.00
20424;BME280;10371;49.042;8.002;2023-08-17T00:31:49;99978.00;;;19.19;100.00
20424;BME280;10371;49.042;8.002;2023-08-17T00:32:49;99979.47;;;19.22;100.00
20424;BME280;10371;49.042;8.002;2023-08-17T00:33:50;99972.75;;;19.19;100.00
20424;BME280;10371;49.042;8.002;2023-08-17T00:34:50;99978.22;;;19.17;100.00
20424;BME280;10371;49.042;8.002;2023-08-17T00:35:51;99976.53;;;19.16;100.00
20424;BME280;10371;49.042;8.002;2023-08-17T00:36:51;99974.25;;;19.13;100.00
20424;BME280;10371;49.042;8.002;2023-08-17T00:37:51;99974.25;;;19.13;100.00
20424;BME280;10371;49.042;8.002;2023-08-17T00:38:51;99976.59;;;19.08;100.00
20424;BME280;10371;49.042;8.002;2023-08-17T00:39:52;99972.22;;;19.01;100.00
20424;BME280;10371;49.042;8.002;2023-08-17T00:40:52;99972.38;;;18.99;100.00
20424;BME280;10371;49.042;8.002;2023-08-17T00:41:52;99969.28;;;18.95;100.00
20424;BME280;10371;49.042;8.002;2023-08-17T00:42:53;99965.34;;;18.91;100.00
20424;BME280;10371;49.042;8.002;2023-08-17T00:43:53;99962.22;;;18.88;100.00
20424;BME280;10371;49.042;8.002;2023-08-17T00:44:53;99955.66;;;18.84;100.00
20424;BME280;10371;49.042;8.002;2023-08-17T00:45:54;99952.19;;;18.83;100.00
20424;BME280;10371;49.042;8.002;2023-08-17T00:46:54;99961.94;;;18.83;100.00
20424;BME280;10371;49.042;8.002;2023-08-17T00:47:56;99959.47;;;18.81;100.00
20424;BME280;10371;49.042;8.002;2023-08-17T00:48:57;99956.03;;;18.81;100.00
20424;BME280;10371;49.042;8.002;2023-08-17T00:49:59;99961.31;;;18.81;100.00
20424;BME280;10371;49.042;8.002;2023-08-17T00:50:59;99955.38;;;18.79;100.00
20424;BME280;10371;49.042;8.002;2023-08-17T00:52:01;99953.91;;;18.76;100.00
20424;BME280;10371;49.042;8.002;2023-08-17T00:53:02;99961.97;;;18.74;100.00
20424;BME280;10371;49.042;8.002;2023-08-17T00:54:03;99957.00;;;18.71;100.00
20424;BME280;10371;49.042;8.002;2023-08-17T00:55:05;99955.38;;;18.70;100.00
20424;BME280;10371;49.042;8.002;2023-08-17T00:56:05;99951.94;;;18.70;100.00
20424;BME280;10371;49.042;8.002;2023-08-17T00:57:05;99958.84;;;18.71;100.00
20424;BME280;10371;49.042;8.002;2023-08-17T00:58:06;99944.00;;;18.70;100.00
20424;BME280;10371;49.042;8.002;2023-08-17T00:59:07;99952.75;;;18.70;100.00
20424;BME280;10371;49.042;8.002;2023-08-17T01:00:08;99947.28;;;18.72;100.00
20424;BME280;10371;49.042;8.002;2023-08-17T01:01:10;99949.09;;;18.71;100.00
20424;BME280;10371;49.042;8.002;2023-08-17T01:02:10;99942.19;;;18.70;100.00
20424;BME280;10371;49.042;8.002;2023-08-17T01:03:10;99946.00;;;18.68;100.00
20424;BME280;10371;49.042;8.002;2023-08-17T01:04:11;99944.38;;;18.67;100.00
20424;BME280;10371;49.042;8.002;2023-08-17T01:05:11;99948.97;;;18.65;100.00
20424;BME280;10371;49.042;8.002;2023-08-17T01:06:11;99942.59;;;18.59;100.00
20424;BME280;10371;49.042;8.002;2023-08-17T01:07:12;99942.59;;;18.59;100.00
20424;BME280;10371;49.042;8.002;2023-08-17T01:08:12;99946.84;;;18.60;100.00
20424;BME280;10371;49.042;8.002;2023-08-17T01:09:12;99943.56;;;18.58;100.00
20424;BME280;10371;49.042;8.002;2023-08-17T01:10:13;99946.84;;;18.60;100.00
20424;BME280;10371;49.042;8.002;2023-08-17T01:11:28;99942.94;;;18.56;100.00
20424;BME280;10371;49.042;8.002;2023-08-17T01:12:38;99948.56;;;18.53;100.00
20424;BME280;10371;49.042;8.002;2023-08-17T01:14:52;99944.78;;;18.47;100.00
20424;BME280;10371;49.042;8.002;2023-08-17T01:15:58;99936.56;;;18.42;100.00
20424;BME280;10371;49.042;8.002;2023-08-17T01:17:08;99939.06;;;18.36;100.00
20424;BME280;10371;49.042;8.002;2023-08-17T01:18:17;99941.06;;;18.34;100.00
20424;BME280;10371;49.042;8.002;2023-08-17T01:19:26;99951.59;;;18.34;100.00
20424;BME280;10371;49.042;8.002;2023-08-17T01:20:27;99946.50;;;18.32;100.00
20424;BME280;10371;49.042;8.002;2023-08-17T01:21:38;99945.66;;;18.31;100.00
20424;BME280;10371;49.042;8.002;2023-08-17T01:22:41;99946.13;;;18.35;100.00
20424;BME280;10371;49.042;8.002;2023-08-17T01:23:44;99947.81;;;18.36;100.00
20424;BME280;10371;49.042;8.002;2023-08-17T01:24:45;99938.41;;;18.34;100.00
20424;BME280;10371;49.042;8.002;2023-08-17T01:25:45;99944.97;;;18.38;100.00
20424;BME280;10371;49.042;8.002;2023-08-17T01:26:45;99942.34;;;18.38;100.00
20424;BME280;10371;49.042;8.002;2023-08-17T01:27:46;99951.06;;;18.38;100.00
20424;BME280;10371;49.042;8.002;2023-08-17T01:28:47;99939.91;;;18.36;100.00
20424;BME280;10371;49.042;8.002;2023-08-17T01:29:47;99944.16;;;18.37;100.00
20424;BME280;10371;49.042;8.002;2023-08-17T01:31:00;99934.44;;;18.38;100.00
20424;BME280;10371;49.042;8.002;2023-08-17T01:32:28;99939.06;;;18.36;100.00
20424;BME280;10371;49.042;8.002;2023-08-17T01:33:40;99938.06;;;18.37;100.00
20424;BME280;10371;49.042;8.002;2023-08-17T01:34:56;99925.25;;;18.34;100.00
20424;BME280;10371;49.042;8.002;2023-08-17T01:36:09;99943.69;;;18.34;100.00
20424;BME280;10371;49.042;8.002;2023-08-17T01:37:17;99941.06;;;18.34;100.00
20424;BME280;10371;49.042;8.002;2023-08-17T01:38:21;99942.03;;;18.33;100.00
20424;BME280;10371;49.042;8.002;2023-08-17T01:39:27;99945.66;;;18.31;100.00
20424;BME280;10371;49.042;8.002;2023-08-17T01:40:31;99942.03;;;18.33;100.00
20424;BME280;10371;49.042;8.002;2023-08-17T01:41:33;99942.03;;;18.33;100.00
20424;BME280;10371;49.042;8.002;2023-08-17T01:42:34;99941.06;;;18.34;100.00
20424;BME280;10371;49.042;8.002;2023-08-17T01:43:35;99940.88;;;18.35;100.00
20424;BME280;10371;49.042;8.002;2023-08-17T01:44:35;99937.41;;;18.35;100.00
20424;BME280;10371;49.042;8.002;2023-08-17T01:45:35;99934.78;;;18.35;100.00
20424;BME280;10371;49.042;8.002;2023-08-17T01:46:36;99937.41;;;18.35;100.00
20424;BME280;10371;49.042;8.002;2023-08-17T01:47:36;99947.81;;;18.36;100.00
20424;BME280;10371;49.042;8.002;2023-08-17T01:48:36;99943.69;;;18.34;100.00
20424;BME280;10371;49.042;8.002;2023-08-17T01:49:37;99945.31;;;18.35;100.00
20424;BME280;10371;49.042;8.002;2023-08-17T01:50:37;99944.66;;;18.33;100.00
20424;BME280;10371;49.042;8.002;2023-08-17T01:51:37;99937.59;;;18.33;100.00
20424;BME280;10371;49.042;8.002;2023-08-17T01:52:37;99949.59;;;18.36;100.00
20424;BME280;10371;49.042;8.002;2023-08-17T01:53:38;99947.16;;;18.34;100.00
20424;BME280;10371;49.042;8.002;2023-08-17T01:54:38;99940.06;;;18.35;100.00
20424;BME280;10371;49.042;8.002;2023-08-17T01:55:38;99938.06;;;18.37;100.00
20424;BME280;10371;49.042;8.002;2023-08-17T01:56:38;99938.72;;;18.39;100.00
20424;BME280;10371;49.042;8.002;2023-08-17T01:57:39;99941.03;;;18.42;100.00
20424;BME280;10371;49.042;8.002;2023-08-17T01:58:39;99941.84;;;18.42;100.00
20424;BME280;10371;49.042;8.002;2023-08-17T01:59:40;99944.28;;;18.44;100.00
20424;BME280;10371;49.042;8.002;2023-08-17T02:00:40;99936.56;;;18.42;100.00
20424;BME280;10371;49.042;8.002;2023-08-17T02:01:40;99937.38;;;18.43;100.00
20424;BME280;10371;49.042;8.002;2023-08-17T02:02:41;99938.84;;;18.45;100.00
20424;BME280;10371;49.042;8.002;2023-08-17T02:03:41;99945.59;;;18.48;100.00
20424;BME280;10371;49.042;8.002;2023-08-17T02:04:41;99936.22;;;18.45;100.00
20424;BME280;10371;49.042;8.002;2023-08-17T02:05:45;99941.31;;;18.47;100.00
20424;BME280;10371;49.042;8.002;2023-08-17T02:06:46;99943.47;;;18.43;100.00
20424;BME280;10371;49.042;8.002;2023-08-17T02:07:46;99953.19;;;18.43;100.00
20424;BME280;10371;49.042;8.002;2023-08-17T02:08:46;99953.19;;;18.43;100.00
20424;BME280;10371;49.042;8.002;2023-08-17T02:09:47;99943.00;;;18.40;100.00
20424;BME280;10371;49.042;8.002;2023-08-17T02:10:47;99940.88;;;18.35;100.00
20424;BME280;10371;49.042;8.002;2023-08-17T02:11:47;99940.25;;;18.33;100.00
20424;BME280;10371;49.042;8.002;2023-08-17T02:12:47;99940.41;;;18.31;100.00
20424;BME280;10371;49.042;8.002;2023-08-17T02:13:48;99935.28;;;18.30;100.00
20424;BME280;10371;49.042;8.002;2023-08-17T02:14:48;99935.97;;;18.24;100.00
20424;BME280;10371;49.042;8.002;2023-08-17T02:15:48;99932.88;;;18.20;100.00
20424;BME280;10371;49.042;8.002;2023-08-17T02:16:49;99934.69;;;18.20;100.00
20424;BME280;10371;49.042;8.002;2023-08-17T02:17:49;99929.41;;;18.20;100.00
20424;BME280;10371;49.042;8.002;2023-08-17T02:18:49;99931.72;;;18.15;100.00
20424;BME280;10371;49.042;8.002;2023-08-17T02:19:50;99926.97;;;18.10;100.00
20424;BME280;10371;49.042;8.002;2023-08-17T02:20:50;99930.25;;;18.12;100.00
20424;BME280;10371;49.042;8.002;2023-08-17T02:21:51;99935.06;;;18.08;100.00
20424;BME280;10371;49.042;8.002;2023-08-17T02:22:51;99928.63;;;18.11;100.00
20424;BME280;10371;49.042;8.002;2023-08-17T02:23:52;99935.53;;;18.12;100.00
20424;BME280;10371;49.042;8.002;2023-08-17T02:24:52;99931.88;;;18.13;100.00
20424;BME280;10371;49.042;8.002;2023-08-17T02:25:52;99930.72;;;18.16;100.00
20424;BME280;10371;49.042;8.002;2023-08-17T02:26:52;99926.47;;;18.15;100.00
20424;BME280;10371;49.042;8.002;2023-08-17T02:27:53;99927.28;;;18.15;100.00
20424;BME280;10371;49.042;8.002;2023-08-17T02:28:53;99930.59;;;18.09;100.00
20424;BME280;10371;49.042;8.002;2023-08-17T02:29:53;99922.69;;;18.09;100.00
20424;BME280;10371;49.042;8.002;2023-08-17T02:30:59;99928.63;;;18.11;100.00
20424;BME280;10371;49.042;8.002;2023-08-17T02:31:59;99919.06;;;18.10;100.00
20424;BME280;10371;49.042;8.002;2023-08-17T02:33:00;99925.34;;;18.09;100.00
20424;BME280;10371;49.042;8.002;2023-08-17T02:34:00;99921.34;;;18.13;100.00
20424;BME280;10371;49.042;8.002;2023-08-17T02:35:06;99921.19;;;18.15;100.00
20424;BME280;10371;49.042;8.002;2023-08-17T02:36:07;99922.81;;;18.16;100.00
20424;BME280;10371;49.042;8.002;2023-08-17T02:37:07;99912.81;;;18.11;100.00
20424;BME280;10371;49.042;8.002;2023-08-17T02:38:07;99922.19;;;18.14;100.00
20424;BME280;10371;49.042;8.002;2023-08-17T02:39:08;99920.53;;;18.13;100.00
20424;BME280;10371;49.042;8.002;2023-08-17T02:40:08;99923.16;;;18.13;100.00
20424;BME280;10371;49.042;8.002;2023-08-17T02:41:09;99928.63;;;18.11;100.00
20424;BME280;10371;49.042;8.002;2023-08-17T02:42:09;99921.88;;;18.08;100.00
20424;BME280;10371;49.042;8.002;2023-08-17T02:43:09;99925.66;;;18.06;100.00
20424;BME280;10371;49.042;8.002;2023-08-17T02:44:10;99924.66;;;18.07;100.00
20424;BME280;10371;49.042;8.002;2023-08-17T02:45:11;99926.34;;;18.08;100.00
20424;BME280;10371;49.042;8.002;2023-08-17T02:46:11;99922.03;;;18.07;100.00
20424;BME280;10371;49.042;8.002;2023-08-17T02:47:11;99923.69;;;18.08;100.00
20424;BME280;10371;49.042;8.002;2023-08-17T02:48:12;99918.75;;;18.05;100.00
20424;BME280;10371;49.042;8.002;2023-08-17T02:49:12;99915.63;;;18.01;100.00
20424;BME280;10371;49.042;8.002;2023-08-17T02:50:12;99919.91;;;18.02;100.00
20424;BME280;10371;49.042;8.002;2023-08-17T02:51:13;99921.09;;;18.00;100.00
20424;BME280;10371;49.042;8.002;2023-08-17T02:52:14;99906.59;;;17.96;100.00
20424;BME280;10371;49.042;8.002;2023-08-17T02:53:14;99911.53;;;17.91;100.00
20424;BME280;10371;49.042;8.002;2023-08-17T02:54:14;99918.47;;;17.92;100.00
20424;BME280;10371;49.042;8.002;2023-08-17T02:55:14;99909.09;;;17.89;100.00
20424;BME280;10371;49.042;8.002;2023-08-17T02:56:15;99909.25;;;17.88;100.00
20424;BME280;10371;49.042;8.002;2023-08-17T02:57:15;99915.84;;;17.92;100.00
20424;BME280;10371;49.042;8.002;2023-08-17T02:58:15;99914.38;;;17.89;100.00
20424;BME280;10371;49.042;8.002;2023-08-17T02:59:16;99912.06;;;17.86;100.00
20424;BME280;10371;49.042;8.002;2023-08-17T03:00:16;99910.59;;;17.83;100.00
20424;BME280;10371;49.042;8.002;2023-08-17T03:01:16;99910.75;;;17.82;100.00
20424;BME280;10371;49.042;8.002;2023-08-17T03:02:17;99912.91;;;17.78;100.00
20424;BME280;10371;49.042;8.002;2023-08-17T03:03:17;99906.28;;;17.74;100.00
20424;BME280;10371;49.042;8.002;2023-08-17T03:04:17;99905.81;;;17.71;100.00
20424;BME280;10371;49.042;8.002;2023-08-17T03:05:18;99897.91;;;17.71;100.00
20424;BME280;10371;49.042;8.002;2023-08-17T03:06:18;99897.75;;;17.72;100.00
20424;BME280;10371;49.042;8.002;2023-08-17T03:07:18;99901.00;;;17.74;100.00
20424;BME280;10371;49.042;8.002;2023-08-17T03:08:18;99891.50;;;17.73;100.00
20424;BME280;10371;49.042;8.002;2023-08-17T03:09:19;99894.94;;;17.74;100.00
20424;BME280;10371;49.042;8.002;2023-08-17T03:10:19;99894.94;;;17.74;100.00
20424;BME280;10371;49.042;8.002;2023-08-17T03:11:20;99899.53;;;17.72;100.00
20424;BME280;10371;49.042;8.002;2023-08-17T03:12:21;99899.06;;;17.68;100.00
20424;BME280;10371;49.042;8.002;2023-08-17T03:13:21;99896.78;;;17.65;100.00
20424;BME280;10371;49.042;8.002;2023-08-17T03:14:21;99898.75;;;17.63;100.00
20424;BME280;10371;49.042;8.002;2023-08-17T03:15:22;99895.94;;;17.64;100.00
20424;BME280;10371;49.042;8.002;2023-08-17T03:16:22;99899.41;;;17.65;100.00
20424;BME280;10371;49.042;8.002;2023-08-17T03:17:22;99893.47;;;17.63;100.00
20424;BME280;10371;49.042;8.002;2023-08-17T03:18:22;99896.09;;;17.63;100.00
20424;BME280;10371;49.042;8.002;2023-08-17T03:19:23;99891.84;;;17.62;100.00
20424;BME280;10371;49.042;8.002;2023-08-17T03:20:23;99888.53;;;17.60;100.00
20424;BME280;10371;49.042;8.002;2023-08-17T03:21:23;99889.69;;;17.57;100.00
20424;BME280;10371;49.042;8.002;2023-08-17T03:22:24;99896.13;;;17.55;100.00
20424;BME280;10371;49.042;8.002;2023-08-17T03:23:24;99888.88;;;17.57;100.00
20424;BME280;10371;49.042;8.002;2023-08-17T03:24:24;99888.06;;;17.56;100.00
20424;BME280;10371;49.042;8.002;2023-08-17T03:25:25;99893.50;;;17.55;100.00
20424;BME280;10371;49.042;8.002;2023-08-17T03:26:25;99893.34;;;17.56;100.00
20424;BME280;10371;49.042;8.002;2023-08-17T03:27:25;99889.06;;;17.55;100.00
20424;BME280;10371;49.042;8.002;2023-08-17T03:28:27;99889.22;;;17.54;100.00
20424;BME280;10371;49.042;8.002;2023-08-17T03:29:27;99886.59;;;17.54;100.00
20424;BME280;10371;49.042;8.002;2023-08-17T03:30:28;99888.41;;;17.53;100.00
20424;BME280;10371;49.042;8.002;2023-08-17T03:31:28;99888.41;;;17.53;100.00
20424;BME280;10371;49.042;8.002;2023-08-17T03:32:28;99890.22;;;17.53;100.00
20424;BME280;10371;49.042;8.002;2023-08-17T03:33:29;99888.56;;;17.52;100.00
20424;BME280;10371;49.042;8.002;2023-08-17T03:34:29;99891.19;;;17.52;100.00
20424;BME280;10371;49.042;8.002;2023-08-17T03:35:30;99882.31;;;17.53;100.00
20424;BME280;10371;49.042;8.002;2023-08-17T03:36:30;99887.41;;;17.54;100.00
20424;BME280;10371;49.042;8.002;2023-08-17T03:37:30;99881.97;;;17.56;100.00
20424;BME280;10371;49.042;8.002;2023-08-17T03:38:30;99884.94;;;17.61;100.00
20424;BME280;10371;49.042;8.002;2023-08-17T03:39:31;99881.47;;;17.60;100.00
20424;BME280;10371;49.042;8.002;2023-08-17T03:40:31;99876.84;;;17.62;100.00
20424;BME280;10371;49.042;8.002;2023-08-17T03:41:31;99879.00;;;17.67;100.00
20424;BME280;10371;49.042;8.002;2023-08-17T03:42:32;99873.72;;;17.67;100.00
20424;BME280;10371;49.042;8.002;2023-08-17T03:43:32;99881.94;;;17.72;100.00
20424;BME280;10371;49.042;8.002;2023-08-17T03:44:32;99882.78;;;17.73;100.00
20424;BME280;10371;49.042;8.002;2023-08-17T03:45:33;99883.59;;;17.73;100.00
20424;BME280;10371;49.042;8.002;2023-08-17T03:46:33;99880.94;;;17.73;100.00
20424;BME280;10371;49.042;8.002;2023-08-17T03:47:33;99875.53;;;17.75;100.00
20424;BME280;10371;49.042;8.002;2023-08-17T03:48:34;99884.88;;;17.77;100.00
20424;BME280;10371;49.042;8.002;2023-08-17T03:49:34;99882.44;;;17.76;100.00
20424;BME280;10371;49.042;8.002;2023-08-17T03:50:34;99879.47;;;17.71;100.00
20424;BME280;10371;49.042;8.002;2023-08-17T03:51:35;99881.63;;;17.67;100.00
20424;BME280;10371;49.042;8.002;2023-08-17T03:52:35;99885.41;;;17.64;100.00
20424;BME280;10371;49.042;8.002;2023-08-17T03:53:36;99881.16;;;17.63;100.00
20424;BME280;10371;49.042;8.002;2023-08-17T03:54:36;99882.94;;;17.63;100.00
20424;BME280;10371;49.042;8.002;2023-08-17T03:55:36;99878.19;;;17.58;100.00
20424;BME280;10371;49.042;8.002;2023-08-17T03:56:36;99880.50;;;17.61;100.00
20424;BME280;10371;49.042;8.002;2023-08-17T03:57:37;99885.91;;;17.60;100.00
20424;BME280;10371;49.042;8.002;2023-08-17T03:58:37;99880.84;;;17.58;100.00
20424;BME280;10371;49.042;8.002;2023-08-17T03:59:37;99886.25;;;17.57;100.00
20424;BME280;10371;49.042;8.002;2023-08-17T04:00:38;99882.81;;;17.56;100.00
20424;BME280;10371;49.042;8.002;2023-08-17T04:01:39;99889.38;;;17.60;100.00
20424;BME280;10371;49.042;8.002;2023-08-17T04:02:39;99890.22;;;17.61;100.00
20424;BME280;10371;49.042;8.002;2023-08-17T04:03:39;99891.84;;;17.62;100.00
20424;BME280;10371;49.042;8.002;2023-08-17T04:04:40;99886.22;;;17.65;100.00
20424;BME280;10371;49.042;8.002;2023-08-17T04:05:40;99889.88;;;17.64;100.00
20424;BME280;10371;49.042;8.002;2023-08-17T04:06:40;99887.88;;;17.66;100.00
20424;BME280;10371;49.042;8.002;2023-08-17T04:07:41;99879.81;;;17.68;100.00
20424;BME280;10371;49.042;8.002;2023-08-17T04:08:41;99890.81;;;17.71;100.00
20424;BME280;10371;49.042;8.002;2023-08-17T04:09:43;99881.09;;;17.72;100.00
20424;BME280;10371;49.042;8.002;2023-08-17T04:10:44;99882.59;;;17.74;100.00
20424;BME280;10371;49.042;8.002;2023-08-17T04:11:44;99881.75;;;17.74;100.00
20424;BME280;10371;49.042;8.002;2023-08-17T04:12:45;99889.31;;;17.77;100.00
20424;BME280;10371;49.042;8.002;2023-08-17T04:13:45;99887.69;;;17.76;100.00
20424;BME280;10371;49.042;8.002;2023-08-17T04:14:45;99888.84;;;17.73;100.00
20424;BME280;10371;49.042;8.002;2023-08-17T04:15:46;99888.50;;;17.76;100.00
20424;BME280;10371;49.042;8.002;2023-08-17T04:16:46;99888.19;;;17.79;100.00
20424;BME280;10371;49.042;8.002;2023-08-17T04:17:46;99885.41;;;17.81;100.00
20424;BME280;10371;49.042;8.002;2023-08-17T04:18:46;99885.22;;;17.82;100.00
20424;BME280;10371;49.042;8.002;2023-08-17T04:19:47;99891.50;;;17.81;100.00
20424;BME280;10371;49.042;8.002;2023-08-17T04:20:47;99883.75;;;17.80;100.00
20424;BME280;10371;49.042;8.002;2023-08-17T04:21:47;99887.69;;;17.76;100.00
20424;BME280;10371;49.042;8.002;2023-08-17T04:22:48;99886.06;;;17.75;100.00
20424;BME280;10371;49.042;8.002;2023-08-17T04:23:48;99893.47;;;17.79;100.00
20424;BME280;10371;49.042;8.002;2023-08-17T04:24:48;99886.38;;;17.80;100.00
20424;BME280;10371;49.042;8.002;2023-08-17T04:25:49;99896.59;;;17.83;100.00
20424;BME280;10371;49.042;8.002;2023-08-17T04:26:49;99895.59;;;17.84;100.00
20424;BME280;10371;49.042;8.002;2023-08-17T04:27:49;99893.63;;;17.86;100.00
20424;BME280;10371;49.042;8.002;2023-08-17T04:28:50;99894.44;;;17.86;100.00
20424;BME280;10371;49.042;8.002;2023-08-17T04:29:50;99887.72;;;17.84;100.00
20424;BME280;10371;49.042;8.002;2023-08-17T04:30:50;99889.00;;;17.88;100.00
20424;BME280;10371;49.042;8.002;2023-08-17T04:31:51;99892.47;;;17.89;100.00
20424;BME280;10371;49.042;8.002;2023-08-17T04:32:51;99894.59;;;17.93;100.00
20424;BME280;10371;49.042;8.002;2023-08-17T04:33:52;99895.41;;;17.94;100.00
20424;BME280;10371;49.042;8.002;2023-08-17T04:34:52;99895.91;;;17.97;100.00
20424;BME280;10371;49.042;8.002;2023-08-17T04:35:53;99892.25;;;17.98;100.00
20424;BME280;10371;49.042;8.002;2023-08-17T04:36:53;99897.19;;;18.01;100.00
20424;BME280;10371;49.042;8.002;2023-08-17T04:37:53;99897.50;;;18.06;100.00
20424;BME280;10371;49.042;8.002;2023-08-17T04:38:53;99886.81;;;18.08;100.00
20424;BME280;10371;49.042;8.002;2023-08-17T04:39:54;99890.38;;;18.15;100.00
20424;BME280;10371;49.042;8.002;2023-08-17T04:40:54;99897.78;;;18.20;100.00
20424;BME280;10371;49.042;8.002;2023-08-17T04:41:54;99899.22;;;18.30;100.00
20424;BME280;10371;49.042;8.002;2023-08-17T04:42:55;99897.53;;;18.38;100.00
20424;BME280;10371;49.042;8.002;2023-08-17T04:43:55;99898.84;;;18.42;100.00
20424;BME280;10371;49.042;8.002;2023-08-17T04:44:55;99896.47;;;18.47;100.00
20424;BME280;10371;49.042;8.002;2023-08-17T04:45:56;99897.16;;;18.49;100.00
20424;BME280;10371;49.042;8.002;2023-08-17T04:46:56;99901.91;;;18.53;100.00
20424;BME280;10371;49.042;8.002;2023-08-17T04:47:56;99898.91;;;18.57;100.00
20424;BME280;10371;49.042;8.002;2023-08-17T04:48:56;99906.31;;;18.61;100.00
20424;BME280;10371;49.042;8.002;2023-08-17T04:49:57;99904.31;;;18.63;100.00
20424;BME280;10371;49.042;8.002;2023-08-17T04:50:57;99903.34;;;18.64;100.00
20424;BME280;10371;49.042;8.002;2023-08-17T04:51:57;99907.44;;;18.67;100.00
20424;BME280;10371;49.042;8.002;2023-08-17T04:52:57;99908.41;;;18.66;100.00
20424;BME280;10371;49.042;8.002;2023-08-17T04:53:58;99914.84;;;18.63;100.00
20424;BME280;10371;49.042;8.002;2023-08-17T04:54:58;99910.25;;;18.65;100.00
20424;BME280;10371;49.042;8.002;2023-08-17T04:55:59;99918.16;;;18.65;100.00
20424;BME280;10371;49.042;8.002;2023-08-17T04:56:59;99916.81;;;18.69;100.00
20424;BME280;10371;49.042;8.002;2023-08-17T04:57:59;99913.69;;;18.74;100.00
20424;BME280;10371;49.042;8.002;2023-08-17T04:58:59;99916.97;;;18.76;100.00
20424;BME280;10371;49.042;8.002;2023-08-17T05:00:00;99915.59;;;18.80;100.00
20424;BME280;10371;49.042;8.002;2023-08-17T05:01:00;99919.09;;;18.81;100.00
20424;BME280;10371;49.042;8.002;2023-08-17T05:02:00;99917.44;;;18.80;100.00
20424;BME280;10371;49.042;8.002;2023-08-17T05:03:01;99921.06;;;18.79;100.00
20424;BME280;10371;49.042;8.002;2023-08-17T05:04:01;99917.44;;;18.80;100.00
20424;BME280;10371;49.042;8.002;2023-08-17T05:05:05;99918.59;;;18.77;100.00
20424;BME280;10371;49.042;8.002;2023-08-17T05:06:06;99922.34;;;18.83;100.00
20424;BME280;10371;49.042;8.002;2023-08-17T05:07:06;99923.66;;;18.87;100.00
20424;BME280;10371;49.042;8.002;2023-08-17T05:08:06;99931.22;;;18.90;100.00
20424;BME280;10371;49.042;8.002;2023-08-17T05:09:07;99927.94;;;18.88;100.00
20424;BME280;10371;49.042;8.002;2023-08-17T05:10:07;99927.94;;;18.88;100.00
20424;BME280;10371;49.042;8.002;2023-08-17T05:11:07;99926.97;;;18.89;100.00
20424;BME280;10371;49.042;8.002;2023-08-17T05:12:08;99928.22;;;18.93;100.00
20424;BME280;10371;49.042;8.002;2023-08-17T05:13:09;99929.47;;;19.05;100.00
20424;BME280;10371;49.042;8.002;2023-08-17T05:14:09;99926.13;;;19.11;100.00
20424;BME280;10371;49.042;8.002;2023-08-17T05:15:09;99932.53;;;19.17;100.00
20424;BME280;10371;49.042;8.002;2023-08-17T05:16:10;99928.88;;;19.18;100.00
20424;BME280;10371;49.042;8.002;2023-08-17T05:17:10;99933.72;;;19.29;100.00
20424;BME280;10371;49.042;8.002;2023-08-17T05:18:10;99928.97;;;19.25;100.00
20424;BME280;10371;49.042;8.002;2023-08-17T05:19:11;99937.38;;;19.28;100.00
20424;BME280;10371;49.042;8.002;2023-08-17T05:20:11;99934.75;;;19.28;100.00